createdAt,value
2023-01-20T00:04:29.980Z,3.10
2023-01-20T00:09:32.064Z,3.10
2023-01-20T00:14:35.609Z,3.10
2023-01-20T00:19:37.702Z,3.20
2023-01-20T00:24:39.822Z,3.10
2023-01-20T00:29:43.360Z,3.10
2023-01-20T00:34:46.463Z,3.20
2023-01-20T00:39:48.593Z,3.20
2023-01-20T00:44:52.188Z,3.20
2023-01-20T00:49:54.336Z,3.20
2023-01-20T00:54:56.545Z,3.20
2023-01-20T01:00:00.090Z,3.20
2023-01-20T01:05:02.277Z,3.20
2023-01-20T01:10:05.148Z,3.20
2023-01-20T01:15:09.433Z,3.10
2023-01-20T01:20:12.974Z,3.10
2023-01-20T01:25:16.803Z,3.00
2023-01-20T01:30:20.433Z,3.00
2023-01-20T01:35:22.750Z,3.00
2023-01-20T01:40:25.200Z,2.90
2023-01-20T01:45:30.242Z,2.90
2023-01-20T01:50:39.435Z,2.90
2023-01-20T01:55:46.769Z,2.90
2023-01-20T02:00:50.690Z,2.80
2023-01-20T02:05:55.047Z,2.80
2023-01-20T02:10:57.136Z,2.80
2023-01-20T02:16:12.435Z,2.80
2023-01-20T02:21:49.729Z,2.80
2023-01-20T02:27:02.285Z,2.80
2023-01-20T02:32:14.604Z,2.70
2023-01-20T02:37:25.019Z,2.70
2023-01-20T02:42:36.797Z,2.70
2023-01-20T02:47:51.511Z,2.70
2023-01-20T02:52:58.194Z,2.70
2023-01-20T02:58:04.440Z,2.70
2023-01-20T03:03:10.937Z,2.70
2023-01-20T03:08:15.771Z,2.80
2023-01-20T03:13:23.712Z,2.80
2023-01-20T03:18:29.681Z,2.80
2023-01-20T03:23:34.993Z,2.80
2023-01-20T03:28:37.105Z,2.90
2023-01-20T03:33:40.735Z,2.90
2023-01-20T03:38:43.711Z,3.00
2023-01-20T03:43:52.747Z,3.10
2023-01-20T03:49:05.202Z,3.10
2023-01-20T03:54:10.806Z,3.20
2023-01-20T03:59:14.529Z,3.20
2023-01-20T04:04:20.092Z,3.20
2023-01-20T04:09:26.337Z,3.20
2023-01-20T04:14:28.476Z,3.20
2023-01-20T04:19:31.974Z,3.20
2023-01-20T04:24:41.808Z,3.20
2023-01-20T04:29:43.962Z,3.30
2023-01-20T04:34:50.103Z,3.30
2023-01-20T04:39:52.232Z,3.30
2023-01-20T04:44:54.266Z,3.30
2023-01-20T04:49:58.068Z,3.30
2023-01-20T04:55:00.177Z,3.30
2023-01-20T05:00:07.784Z,3.30
2023-01-20T05:05:11.433Z,3.40
2023-01-20T05:10:13.575Z,3.40
2023-01-20T05:15:15.897Z,3.40
2023-01-20T05:20:20.342Z,3.40
2023-01-20T05:25:22.523Z,3.40
2023-01-20T05:30:24.645Z,3.40
2023-01-20T05:35:28.308Z,3.40
2023-01-20T05:40:32.277Z,3.40
2023-01-20T05:45:34.407Z,3.50
2023-01-20T05:50:37.955Z,3.40
2023-01-20T05:55:40.673Z,3.40
2023-01-20T06:00:42.914Z,3.40
2023-01-20T06:05:46.453Z,3.40
2023-01-20T06:10:50.539Z,3.40
2023-01-20T06:15:53.552Z,3.50
2023-01-20T06:20:59.168Z,3.40
2023-01-20T06:26:03.906Z,3.40
2023-01-20T06:31:08.414Z,3.40
2023-01-20T06:36:12.835Z,3.40
2023-01-20T06:41:15.282Z,3.30
2023-01-20T06:46:17.779Z,3.30
2023-01-20T06:51:21.353Z,3.30
2023-01-20T06:56:24.184Z,3.30
2023-01-20T07:01:28.745Z,3.30
2023-01-20T07:06:35.114Z,3.30
2023-01-20T07:11:37.377Z,3.30
2023-01-20T07:16:39.594Z,3.30
2023-01-20T07:21:43.271Z,3.30
2023-01-20T07:26:45.464Z,3.30
2023-01-20T07:31:47.588Z,3.30
2023-01-20T07:36:53.442Z,3.30
2023-01-20T07:41:55.541Z,3.30
2023-01-20T07:46:57.957Z,3.30
2023-01-20T07:52:01.472Z,3.40
2023-01-20T07:57:03.709Z,3.40
2023-01-20T08:02:05.946Z,3.40
2023-01-20T08:07:09.514Z,3.40
2023-01-20T08:12:11.626Z,3.30
2023-01-20T08:17:13.878Z,3.30
2023-01-20T08:22:17.420Z,3.30
2023-01-20T08:27:19.660Z,3.30
2023-01-20T08:32:21.784Z,3.30
2023-01-20T08:37:25.435Z,3.40
2023-01-20T08:42:27.653Z,3.40
2023-01-20T08:47:29.929Z,3.40
2023-01-20T08:52:33.712Z,3.40
2023-01-20T08:57:35.891Z,3.50
2023-01-20T09:02:38.210Z,3.50
2023-01-20T09:07:41.771Z,3.50
2023-01-20T09:12:43.853Z,3.50
2023-01-20T09:17:46.119Z,3.50
2023-01-20T09:22:49.737Z,3.50
2023-01-20T09:27:52.132Z,3.50
2023-01-20T09:32:54.287Z,3.50
2023-01-20T09:37:57.865Z,3.50
2023-01-20T09:43:11.704Z,3.60
2023-01-20T09:48:22.330Z,3.60
2023-01-20T09:53:47.133Z,3.60
2023-01-20T09:58:56.238Z,3.60
2023-01-20T10:04:06.610Z,3.70
2023-01-20T10:09:19.390Z,3.80
2023-01-20T10:14:28.095Z,3.90
2023-01-20T10:19:35.899Z,3.90
2023-01-20T10:24:45.451Z,4.00
2023-01-20T10:29:53.824Z,4.00
2023-01-20T10:35:01.012Z,4.10
2023-01-20T10:40:15.959Z,4.20
2023-01-20T10:45:28.417Z,4.20
2023-01-20T10:50:51.133Z,4.20
2023-01-20T10:56:04.935Z,4.20
2023-01-20T11:01:08.296Z,4.20
2023-01-20T11:06:18.785Z,4.20
2023-01-20T11:11:24.827Z,4.20
2023-01-20T11:16:28.768Z,4.20
2023-01-20T11:21:33.680Z,4.30
2023-01-20T11:26:38.925Z,4.30
2023-01-20T11:31:44.601Z,4.40
2023-01-20T11:36:46.781Z,4.50
2023-01-20T11:42:11.716Z,4.60
2023-01-20T11:47:22.516Z,4.70
2023-01-20T11:52:25.010Z,4.80
2023-01-20T11:57:30.662Z,4.90
2023-01-20T12:02:32.849Z,4.90
2023-01-20T12:07:41.544Z,5.00
2023-01-20T12:12:51.420Z,5.00
2023-01-20T12:17:58.619Z,5.10
2023-01-20T12:23:13.863Z,5.10
2023-01-20T12:28:23.287Z,5.20
2023-01-20T12:33:28.935Z,5.30
2023-01-20T12:38:41.897Z,5.40
2023-01-20T12:43:57.013Z,5.30
2023-01-20T12:49:27.264Z,5.20
2023-01-20T12:54:49.956Z,5.20
2023-01-20T13:00:10.911Z,5.10
2023-01-20T13:05:36.554Z,5.20
2023-01-20T13:10:51.715Z,5.30
2023-01-20T13:16:00.558Z,5.30
2023-01-20T13:21:02.847Z,5.30
2023-01-20T13:26:06.118Z,5.20
2023-01-20T13:31:33.164Z,5.10
2023-01-20T13:36:35.456Z,5.00
2023-01-20T13:41:48.776Z,4.90
2023-01-20T13:46:53.500Z,4.90
2023-01-20T13:51:55.851Z,5.00
2023-01-20T13:57:35.256Z,5.00
2023-01-20T14:02:40.907Z,5.10
2023-01-20T14:07:44.844Z,5.10
2023-01-20T14:12:47.052Z,5.10
2023-01-20T14:17:55.144Z,4.90
2023-01-20T14:23:25.716Z,4.80
2023-01-20T14:28:28.089Z,4.70
2023-01-20T14:33:31.711Z,4.60
2023-01-20T14:38:55.488Z,4.60
2023-01-20T14:44:00.235Z,4.50
2023-01-20T14:49:04.910Z,4.60
2023-01-20T14:54:39.266Z,4.60
2023-01-20T14:59:41.473Z,4.60
2023-01-20T15:04:45.182Z,4.60
2023-01-20T15:09:55.137Z,4.60
2023-01-20T15:15:14.111Z,4.60
2023-01-20T15:20:33.268Z,4.50
2023-01-20T15:25:37.325Z,4.40
2023-01-20T15:30:39.490Z,4.40
2023-01-20T15:35:43.091Z,4.40
2023-01-20T15:40:45.254Z,4.40
2023-01-20T15:45:47.420Z,4.40
2023-01-20T15:50:50.985Z,4.30
2023-01-20T15:55:53.179Z,4.30
2023-01-20T16:00:57.325Z,4.20
2023-01-20T16:06:01.447Z,4.20
2023-01-20T16:11:03.967Z,4.20
2023-01-20T16:16:12.410Z,4.20
2023-01-20T16:21:18.275Z,4.30
2023-01-20T16:26:22.994Z,4.30
2023-01-20T16:31:29.675Z,4.40
2023-01-20T16:36:37.932Z,4.50
2023-01-20T16:41:50.176Z,4.60
2023-01-20T16:46:52.501Z,4.70
2023-01-20T16:51:56.608Z,4.70
2023-01-20T16:56:58.727Z,4.80
2023-01-20T17:02:00.966Z,4.80
2023-01-20T17:07:04.566Z,4.80
2023-01-20T17:12:07.109Z,4.70
2023-01-20T17:17:09.181Z,4.70
2023-01-20T17:22:12.750Z,4.50
2023-01-20T17:27:14.920Z,4.50
2023-01-20T17:32:17.038Z,4.50
2023-01-20T17:37:20.594Z,4.40
2023-01-20T17:42:22.786Z,4.40
2023-01-20T17:47:24.898Z,4.40
2023-01-20T17:52:29.444Z,4.50
2023-01-20T17:57:31.579Z,4.50
2023-01-20T18:02:33.821Z,4.60
2023-01-20T18:07:39.999Z,4.70
2023-01-20T18:12:42.105Z,4.70
2023-01-20T18:17:44.216Z,4.60
2023-01-20T18:22:50.947Z,4.50
2023-01-20T18:27:53.115Z,4.50
2023-01-20T18:32:56.801Z,4.50
2023-01-20T18:38:00.308Z,4.50
2023-01-20T18:43:03.267Z,4.50
2023-01-20T18:48:06.022Z,4.50
2023-01-20T18:53:09.675Z,4.40
2023-01-20T18:58:11.862Z,4.40
2023-01-20T19:03:14.042Z,4.40
2023-01-20T19:08:17.756Z,4.40
2023-01-20T19:13:19.854Z,4.40
2023-01-20T19:18:24.661Z,4.50
2023-01-20T19:23:28.245Z,4.60
2023-01-20T19:28:30.429Z,4.60
2023-01-20T19:33:32.713Z,4.50
2023-01-20T19:38:37.330Z,4.50
2023-01-20T19:43:40.248Z,4.40
2023-01-20T19:48:43.014Z,4.30
2023-01-20T19:53:47.531Z,4.30
2023-01-20T19:58:54.073Z,4.30
2023-01-20T20:03:56.406Z,4.20
2023-01-20T20:09:02.311Z,4.20
2023-01-20T20:14:08.740Z,4.20
2023-01-20T20:19:14.451Z,4.20
2023-01-20T20:24:18.826Z,4.20
2023-01-20T20:29:21.014Z,4.20
2023-01-20T20:34:23.195Z,4.20
2023-01-20T20:39:28.092Z,4.20
2023-01-20T20:44:30.249Z,4.20
2023-01-20T20:49:32.374Z,4.20
2023-01-20T20:54:35.844Z,4.10
2023-01-20T20:59:53.933Z,4.10
2023-01-20T21:05:02.802Z,4.00
2023-01-20T21:10:07.301Z,3.90
2023-01-20T21:15:10.297Z,3.80
2023-01-20T21:20:13.713Z,3.80
2023-01-20T21:25:17.700Z,3.80
2023-01-20T21:30:20.000Z,3.80
2023-01-20T21:35:22.149Z,3.70
2023-01-20T21:40:25.736Z,3.70
2023-01-20T21:45:27.863Z,3.70
2023-01-20T21:50:30.005Z,3.60
2023-01-20T21:55:43.406Z,3.50
2023-01-20T22:00:45.539Z,3.50
2023-01-20T22:05:50.045Z,3.40
2023-01-20T22:10:57.829Z,3.30
2023-01-20T22:16:02.191Z,3.20
2023-01-20T22:21:05.496Z,3.10
2023-01-20T22:26:09.259Z,3.00
2023-01-20T22:31:13.842Z,3.00
2023-01-20T22:36:16.115Z,2.90
2023-01-20T22:41:20.869Z,2.90
2023-01-20T22:46:24.572Z,2.80
2023-01-20T22:51:28.597Z,2.80
2023-01-20T22:56:32.922Z,2.70
2023-01-20T23:01:38.107Z,2.70
2023-01-20T23:06:40.291Z,2.60
2023-01-20T23:11:43.895Z,2.60
2023-01-20T23:16:46.030Z,2.60
2023-01-20T23:21:48.221Z,2.60
2023-01-20T23:26:53.335Z,2.60
2023-01-20T23:31:55.972Z,2.50
2023-01-20T23:37:01.109Z,2.40
2023-01-20T23:42:04.829Z,2.30
2023-01-20T23:47:06.958Z,2.30
2023-01-20T23:52:09.056Z,2.30
2023-01-20T23:57:12.581Z,2.20
